sensor_id;sensor_type;location;lat;lon;timestamp;temperature;humidity
21950;DHT22;11139;51.284;7.226;2022-08-21T00:00:59;21.20;99.50
21950;DHT22;11139;51.284;7.226;2022-08-21T00:03:26;21.20;99.40
21950;DHT22;11139;51.284;7.226;2022-08-21T00:05:51;21.20;99.50
21950;DHT22;11139;51.284;7.226;2022-08-21T00:08:17;21.10;99.50
21950;DHT22;11139;51.284;7.226;2022-08-21T00:10:43;21.10;99.40
21950;DHT22;11139;51.284;7.226;2022-08-21T00:13:09;21.10;99.70
21950;DHT22;11139;51.284;7.226;2022-08-21T00:15:36;21.10;99.20
21950;DHT22;11139;51.284;7.226;2022-08-21T00:18:02;21.10;99.30
21950;DHT22;11139;51.284;7.226;2022-08-21T00:20:27;21.10;99.40
21950;DHT22;11139;51.284;7.226;2022-08-21T00:22:53;21.10;99.30
21950;DHT22;11139;51.284;7.226;2022-08-21T00:25:19;21.10;99.40
21950;DHT22;11139;51.284;7.226;2022-08-21T00:27:45;21.10;99.40
21950;DHT22;11139;51.284;7.226;2022-08-21T00:30:12;21.10;99.40
21950;DHT22;11139;51.284;7.226;2022-08-21T00:32:38;21.10;99.30
21950;DHT22;11139;51.284;7.226;2022-08-21T00:35:05;21.00;99.40
21950;DHT22;11139;51.284;7.226;2022-08-21T00:37:31;21.00;99.30
21950;DHT22;11139;51.284;7.226;2022-08-21T00:39:56;21.00;99.20
21950;DHT22;11139;51.284;7.226;2022-08-21T00:42:22;21.00;99.40
21950;DHT22;11139;51.284;7.226;2022-08-21T00:44:48;21.00;99.40
21950;DHT22;11139;51.284;7.226;2022-08-21T00:47:14;21.00;99.40
21950;DHT22;11139;51.284;7.226;2022-08-21T00:49:40;21.00;99.20
21950;DHT22;11139;51.284;7.226;2022-08-21T00:52:07;21.00;99.20
21950;DHT22;11139;51.284;7.226;2022-08-21T00:54:34;21.00;99.10
21950;DHT22;11139;51.284;7.226;2022-08-21T00:57:00;21.00;99.30
21950;DHT22;11139;51.284;7.226;2022-08-21T00:59:27;20.90;99.20
21950;DHT22;11139;51.284;7.226;2022-08-21T01:01:54;20.90;99.20
21950;DHT22;11139;51.284;7.226;2022-08-21T01:04:20;20.90;99.30
21950;DHT22;11139;51.284;7.226;2022-08-21T01:06:45;20.90;99.30
21950;DHT22;11139;51.284;7.226;2022-08-21T01:09:11;20.90;99.20
21950;DHT22;11139;51.284;7.226;2022-08-21T01:11:37;20.90;99.20
21950;DHT22;11139;51.284;7.226;2022-08-21T01:14:03;20.90;99.30
21950;DHT22;11139;51.284;7.226;2022-08-21T01:16:28;20.90;99.10
21950;DHT22;11139;51.284;7.226;2022-08-21T01:18:54;20.90;99.10
21950;DHT22;11139;51.284;7.226;2022-08-21T01:21:21;20.90;99.20
21950;DHT22;11139;51.284;7.226;2022-08-21T01:23:48;20.80;99.20
21950;DHT22;11139;51.284;7.226;2022-08-21T01:26:16;20.80;99.20
21950;DHT22;11139;51.284;7.226;2022-08-21T01:28:44;20.90;99.40
21950;DHT22;11139;51.284;7.226;2022-08-21T01:31:11;20.80;99.10
21950;DHT22;11139;51.284;7.226;2022-08-21T01:33:37;20.80;99.30
21950;DHT22;11139;51.284;7.226;2022-08-21T01:36:03;20.80;99.10
21950;DHT22;11139;51.284;7.226;2022-08-21T01:38:29;20.80;99.30
21950;DHT22;11139;51.284;7.226;2022-08-21T01:40:54;20.80;99.60
21950;DHT22;11139;51.284;7.226;2022-08-21T01:43:19;20.80;99.10
21950;DHT22;11139;51.284;7.226;2022-08-21T01:45:45;20.80;99.20
21950;DHT22;11139;51.284;7.226;2022-08-21T01:48:11;20.80;99.30
21950;DHT22;11139;51.284;7.226;2022-08-21T01:50:36;20.70;99.10
21950;DHT22;11139;51.284;7.226;2022-08-21T01:53:02;20.80;99.20
21950;DHT22;11139;51.284;7.226;2022-08-21T01:55:28;20.70;99.20
21950;DHT22;11139;51.284;7.226;2022-08-21T01:57:53;20.80;99.20
21950;DHT22;11139;51.284;7.226;2022-08-21T02:00:20;20.70;99.10
21950;DHT22;11139;51.284;7.226;2022-08-21T02:02:48;20.70;99.10
21950;DHT22;11139;51.284;7.226;2022-08-21T02:05:14;20.70;99.30
21950;DHT22;11139;51.284;7.226;2022-08-21T02:07:40;20.70;99.20
21950;DHT22;11139;51.284;7.226;2022-08-21T02:10:07;20.70;99.40
21950;DHT22;11139;51.284;7.226;2022-08-21T02:12:33;20.70;99.20
21950;DHT22;11139;51.284;7.226;2022-08-21T02:14:59;20.70;99.20
21950;DHT22;11139;51.284;7.226;2022-08-21T02:17:25;20.70;99.10
21950;DHT22;11139;51.284;7.226;2022-08-21T02:19:51;20.60;99.10
21950;DHT22;11139;51.284;7.226;2022-08-21T02:22:16;20.60;99.20
21950;DHT22;11139;51.284;7.226;2022-08-21T02:24:42;20.60;99.10
21950;DHT22;11139;51.284;7.226;2022-08-21T02:27:07;20.60;99.10
21950;DHT22;11139;51.284;7.226;2022-08-21T02:29:33;20.60;99.40
21950;DHT22;11139;51.284;7.226;2022-08-21T02:31:58;20.60;99.10
21950;DHT22;11139;51.284;7.226;2022-08-21T02:34:24;20.60;99.20
21950;DHT22;11139;51.284;7.226;2022-08-21T02:36:50;20.60;99.10
21950;DHT22;11139;51.284;7.226;2022-08-21T02:39:15;20.60;99.50
21950;DHT22;11139;51.284;7.226;2022-08-21T02:41:41;20.60;99.10
21950;DHT22;11139;51.284;7.226;2022-08-21T02:44:06;20.60;99.10
21950;DHT22;11139;51.284;7.226;2022-08-21T02:46:32;20.50;99.10
21950;DHT22;11139;51.284;7.226;2022-08-21T02:48:57;20.50;99.10
21950;DHT22;11139;51.284;7.226;2022-08-21T02:51:23;20.50;99.10
21950;DHT22;11139;51.284;7.226;2022-08-21T02:53:48;20.50;99.00
21950;DHT22;11139;51.284;7.226;2022-08-21T02:56:18;20.50;99.00
21950;DHT22;11139;51.284;7.226;2022-08-21T02:58:47;20.50;98.90
21950;DHT22;11139;51.284;7.226;2022-08-21T03:01:12;20.50;99.10
21950;DHT22;11139;51.284;7.226;2022-08-21T03:03:39;20.50;99.00
21950;DHT22;11139;51.284;7.226;2022-08-21T03:06:06;20.50;99.00
21950;DHT22;11139;51.284;7.226;2022-08-21T03:08:33;20.50;99.10
21950;DHT22;11139;51.284;7.226;2022-08-21T03:10:59;20.40;98.90
21950;DHT22;11139;51.284;7.226;2022-08-21T03:13:26;20.40;98.90
21950;DHT22;11139;51.284;7.226;2022-08-21T03:15:53;20.40;98.90
21950;DHT22;11139;51.284;7.226;2022-08-21T03:18:19;20.40;98.90
21950;DHT22;11139;51.284;7.226;2022-08-21T03:20:45;20.40;98.90
21950;DHT22;11139;51.284;7.226;2022-08-21T03:23:11;20.40;98.90
21950;DHT22;11139;51.284;7.226;2022-08-21T03:25:37;20.40;98.80
21950;DHT22;11139;51.284;7.226;2022-08-21T03:28:03;20.40;98.80
21950;DHT22;11139;51.284;7.226;2022-08-21T03:30:30;20.40;98.90
21950;DHT22;11139;51.284;7.226;2022-08-21T03:32:57;20.40;98.80
21950;DHT22;11139;51.284;7.226;2022-08-21T03:35:23;20.30;98.80
21950;DHT22;11139;51.284;7.226;2022-08-21T03:37:48;20.40;98.90
21950;DHT22;11139;51.284;7.226;2022-08-21T03:40:15;20.30;98.90
21950;DHT22;11139;51.284;7.226;2022-08-21T03:42:41;20.30;98.80
21950;DHT22;11139;51.284;7.226;2022-08-21T03:45:06;20.30;98.90
21950;DHT22;11139;51.284;7.226;2022-08-21T03:47:32;20.30;98.80
21950;DHT22;11139;51.284;7.226;2022-08-21T03:49:58;20.30;98.90
21950;DHT22;11139;51.284;7.226;2022-08-21T03:52:24;20.30;98.80
21950;DHT22;11139;51.284;7.226;2022-08-21T03:54:50;20.30;98.80
21950;DHT22;11139;51.284;7.226;2022-08-21T03:57:16;20.30;98.80
21950;DHT22;11139;51.284;7.226;2022-08-21T03:59:41;20.20;98.70
21950;DHT22;11139;51.284;7.226;2022-08-21T04:02:08;20.20;98.70
21950;DHT22;11139;51.284;7.226;2022-08-21T04:04:34;20.30;98.70
21950;DHT22;11139;51.284;7.226;2022-08-21T04:07:00;20.30;98.70
21950;DHT22;11139;51.284;7.226;2022-08-21T04:09:25;20.30;98.60
21950;DHT22;11139;51.284;7.226;2022-08-21T04:11:51;20.20;98.60
21950;DHT22;11139;51.284;7.226;2022-08-21T04:14:17;20.20;98.60
21950;DHT22;11139;51.284;7.226;2022-08-21T04:16:43;20.20;98.50
21950;DHT22;11139;51.284;7.226;2022-08-21T04:19:09;20.20;98.60
21950;DHT22;11139;51.284;7.226;2022-08-21T04:21:35;20.20;98.60
21950;DHT22;11139;51.284;7.226;2022-08-21T04:24:01;20.20;98.60
21950;DHT22;11139;51.284;7.226;2022-08-21T04:26:27;20.20;98.60
21950;DHT22;11139;51.284;7.226;2022-08-21T04:28:52;20.20;98.60
21950;DHT22;11139;51.284;7.226;2022-08-21T04:31:18;20.20;98.50
21950;DHT22;11139;51.284;7.226;2022-08-21T04:33:44;20.20;98.40
21950;DHT22;11139;51.284;7.226;2022-08-21T04:36:10;20.10;98.50
21950;DHT22;11139;51.284;7.226;2022-08-21T04:38:36;20.10;98.40
21950;DHT22;11139;51.284;7.226;2022-08-21T04:41:01;20.10;98.40
21950;DHT22;11139;51.284;7.226;2022-08-21T04:43:27;20.10;98.40
21950;DHT22;11139;51.284;7.226;2022-08-21T04:45:53;20.10;98.30
21950;DHT22;11139;51.284;7.226;2022-08-21T04:48:20;20.00;98.30
21950;DHT22;11139;51.284;7.226;2022-08-21T04:50:51;20.10;98.40
21950;DHT22;11139;51.284;7.226;2022-08-21T04:53:37;20.00;98.20
21950;DHT22;11139;51.284;7.226;2022-08-21T04:56:46;20.00;98.20
21950;DHT22;11139;51.284;7.226;2022-08-21T04:58:52;20.00;98.20
21950;DHT22;11139;51.284;7.226;2022-08-21T05:01:20;20.00;98.20
21950;DHT22;11139;51.284;7.226;2022-08-21T05:03:47;20.00;98.20
21950;DHT22;11139;51.284;7.226;2022-08-21T05:06:13;20.00;98.20
21950;DHT22;11139;51.284;7.226;2022-08-21T05:08:40;20.00;98.20
21950;DHT22;11139;51.284;7.226;2022-08-21T05:11:06;20.00;98.10
21950;DHT22;11139;51.284;7.226;2022-08-21T05:13:31;20.00;98.10
21950;DHT22;11139;51.284;7.226;2022-08-21T05:15:57;20.00;98.10
21950;DHT22;11139;51.284;7.226;2022-08-21T05:18:24;19.90;98.00
21950;DHT22;11139;51.284;7.226;2022-08-21T05:20:49;19.90;98.00
21950;DHT22;11139;51.284;7.226;2022-08-21T05:23:16;20.00;98.10
21950;DHT22;11139;51.284;7.226;2022-08-21T05:25:42;19.90;98.00
21950;DHT22;11139;51.284;7.226;2022-08-21T05:28:09;19.90;98.10
21950;DHT22;11139;51.284;7.226;2022-08-21T05:30:35;19.90;98.00
21950;DHT22;11139;51.284;7.226;2022-08-21T05:33:02;19.90;98.00
21950;DHT22;11139;51.284;7.226;2022-08-21T05:35:28;19.90;98.00
21950;DHT22;11139;51.284;7.226;2022-08-21T05:37:54;19.90;98.10
21950;DHT22;11139;51.284;7.226;2022-08-21T05:40:19;19.90;98.10
21950;DHT22;11139;51.284;7.226;2022-08-21T05:42:45;19.90;98.10
21950;DHT22;11139;51.284;7.226;2022-08-21T05:45:10;19.80;98.10
21950;DHT22;11139;51.284;7.226;2022-08-21T05:47:36;19.90;98.10
21950;DHT22;11139;51.284;7.226;2022-08-21T05:50:02;19.80;98.00
21950;DHT22;11139;51.284;7.226;2022-08-21T05:52:27;19.80;98.00
21950;DHT22;11139;51.284;7.226;2022-08-21T05:54:53;19.80;98.10
21950;DHT22;11139;51.284;7.226;2022-08-21T05:57:19;19.80;98.10
21950;DHT22;11139;51.284;7.226;2022-08-21T05:59:45;19.80;98.10
21950;DHT22;11139;51.284;7.226;2022-08-21T06:02:10;19.80;98.10
21950;DHT22;11139;51.284;7.226;2022-08-21T06:04:37;19.80;98.10
21950;DHT22;11139;51.284;7.226;2022-08-21T06:07:02;19.80;98.00
21950;DHT22;11139;51.284;7.226;2022-08-21T06:09:28;19.80;98.00
21950;DHT22;11139;51.284;7.226;2022-08-21T06:11:53;19.80;98.00
21950;DHT22;11139;51.284;7.226;2022-08-21T06:14:19;19.80;98.00
21950;DHT22;11139;51.284;7.226;2022-08-21T06:16:44;19.80;98.00
21950;DHT22;11139;51.284;7.226;2022-08-21T06:19:10;19.80;98.10
21950;DHT22;11139;51.284;7.226;2022-08-21T06:21:35;19.70;98.00
21950;DHT22;11139;51.284;7.226;2022-08-21T06:24:01;19.70;98.00
21950;DHT22;11139;51.284;7.226;2022-08-21T06:26:26;19.70;98.00
21950;DHT22;11139;51.284;7.226;2022-08-21T06:28:53;19.70;98.50
21950;DHT22;11139;51.284;7.226;2022-08-21T06:31:20;19.70;98.10
21950;DHT22;11139;51.284;7.226;2022-08-21T06:33:46;19.70;98.10
21950;DHT22;11139;51.284;7.226;2022-08-21T06:36:12;19.70;98.20
21950;DHT22;11139;51.284;7.226;2022-08-21T06:38:38;19.70;98.20
21950;DHT22;11139;51.284;7.226;2022-08-21T06:41:04;19.70;98.30
21950;DHT22;11139;51.284;7.226;2022-08-21T06:43:29;19.70;98.20
21950;DHT22;11139;51.284;7.226;2022-08-21T06:45:55;19.70;98.20
21950;DHT22;11139;51.284;7.226;2022-08-21T06:48:20;19.70;98.20
21950;DHT22;11139;51.284;7.226;2022-08-21T06:50:46;19.70;98.10
21950;DHT22;11139;51.284;7.226;2022-08-21T06:53:13;19.70;98.20
21950;DHT22;11139;51.284;7.226;2022-08-21T06:55:38;19.70;98.40
21950;DHT22;11139;51.284;7.226;2022-08-21T06:58:05;19.70;98.40
21950;DHT22;11139;51.284;7.226;2022-08-21T07:00:31;19.70;98.40
21950;DHT22;11139;51.284;7.226;2022-08-21T07:02:56;19.70;98.30
21950;DHT22;11139;51.284;7.226;2022-08-21T07:05:24;19.70;98.50
21950;DHT22;11139;51.284;7.226;2022-08-21T07:07:50;19.70;98.40
21950;DHT22;11139;51.284;7.226;2022-08-21T07:10:15;19.70;98.40
21950;DHT22;11139;51.284;7.226;2022-08-21T07:12:41;19.70;98.40
21950;DHT22;11139;51.284;7.226;2022-08-21T07:15:07;19.70;98.30
21950;DHT22;11139;51.284;7.226;2022-08-21T07:17:32;19.70;98.50
21950;DHT22;11139;51.284;7.226;2022-08-21T07:19:58;19.70;98.70
21950;DHT22;11139;51.284;7.226;2022-08-21T07:22:23;19.70;98.30
21950;DHT22;11139;51.284;7.226;2022-08-21T07:24:49;19.60;98.40
21950;DHT22;11139;51.284;7.226;2022-08-21T07:27:15;19.60;98.40
21950;DHT22;11139;51.284;7.226;2022-08-21T07:29:40;19.70;98.70
21950;DHT22;11139;51.284;7.226;2022-08-21T07:32:06;19.70;98.00
21950;DHT22;11139;51.284;7.226;2022-08-21T07:34:31;19.60;97.90
21950;DHT22;11139;51.284;7.226;2022-08-21T07:36:57;19.70;98.10
21950;DHT22;11139;51.284;7.226;2022-08-21T07:39:23;19.60;98.30
21950;DHT22;11139;51.284;7.226;2022-08-21T07:41:49;19.60;98.30
21950;DHT22;11139;51.284;7.226;2022-08-21T07:44:15;19.60;98.10
21950;DHT22;11139;51.284;7.226;2022-08-21T07:46:40;19.60;98.20
21950;DHT22;11139;51.284;7.226;2022-08-21T07:49:06;19.60;98.10
21950;DHT22;11139;51.284;7.226;2022-08-21T07:51:31;19.60;97.90
21950;DHT22;11139;51.284;7.226;2022-08-21T07:53:59;19.60;97.60
21950;DHT22;11139;51.284;7.226;2022-08-21T07:56:25;19.60;98.00
21950;DHT22;11139;51.284;7.226;2022-08-21T07:58:52;19.60;97.70
21950;DHT22;11139;51.284;7.226;2022-08-21T08:01:18;19.60;97.40
21950;DHT22;11139;51.284;7.226;2022-08-21T08:03:44;19.60;97.10
21950;DHT22;11139;51.284;7.226;2022-08-21T08:06:10;19.60;97.10
21950;DHT22;11139;51.284;7.226;2022-08-21T08:08:38;19.60;96.80
21950;DHT22;11139;51.284;7.226;2022-08-21T08:11:04;19.60;97.00
21950;DHT22;11139;51.284;7.226;2022-08-21T08:13:30;19.60;97.00
21950;DHT22;11139;51.284;7.226;2022-08-21T08:15:55;19.60;96.40
21950;DHT22;11139;51.284;7.226;2022-08-21T08:18:21;19.60;96.40
21950;DHT22;11139;51.284;7.226;2022-08-21T08:20:47;19.60;96.50
21950;DHT22;11139;51.284;7.226;2022-08-21T08:23:12;19.60;96.50
21950;DHT22;11139;51.284;7.226;2022-08-21T08:25:38;19.60;96.10
21950;DHT22;11139;51.284;7.226;2022-08-21T08:28:04;19.60;96.00
21950;DHT22;11139;51.284;7.226;2022-08-21T08:30:30;19.60;96.40
21950;DHT22;11139;51.284;7.226;2022-08-21T08:32:56;19.60;96.30
21950;DHT22;11139;51.284;7.226;2022-08-21T08:35:22;19.60;96.10
21950;DHT22;11139;51.284;7.226;2022-08-21T08:37:48;19.60;96.30
21950;DHT22;11139;51.284;7.226;2022-08-21T08:42:55;19.50;96.50
21950;DHT22;11139;51.284;7.226;2022-08-21T08:45:21;19.60;96.30
21950;DHT22;11139;51.284;7.226;2022-08-21T08:47:53;19.60;96.30
21950;DHT22;11139;51.284;7.226;2022-08-21T08:52:52;19.50;96.00
21950;DHT22;11139;51.284;7.226;2022-08-21T08:55:32;19.60;96.50
21950;DHT22;11139;51.284;7.226;2022-08-21T08:57:58;19.50;96.10
21950;DHT22;11139;51.284;7.226;2022-08-21T09:00:24;19.50;95.90
21950;DHT22;11139;51.284;7.226;2022-08-21T09:02:51;19.50;96.00
21950;DHT22;11139;51.284;7.226;2022-08-21T09:05:25;19.50;95.90
21950;DHT22;11139;51.284;7.226;2022-08-21T09:11:11;19.50;95.90
21950;DHT22;11139;51.284;7.226;2022-08-21T09:21:33;19.50;95.80
21950;DHT22;11139;51.284;7.226;2022-08-21T09:26:57;19.50;95.70
21950;DHT22;11139;51.284;7.226;2022-08-21T09:29:27;19.50;95.70
21950;DHT22;11139;51.284;7.226;2022-08-21T09:31:55;19.60;95.60
21950;DHT22;11139;51.284;7.226;2022-08-21T09:34:25;19.50;95.50
21950;DHT22;11139;51.284;7.226;2022-08-21T09:36:51;19.50;95.60
21950;DHT22;11139;51.284;7.226;2022-08-21T09:39:24;19.50;95.60
21950;DHT22;11139;51.284;7.226;2022-08-21T09:42:08;19.50;95.60
21950;DHT22;11139;51.284;7.226;2022-08-21T09:44:35;19.50;95.60
21950;DHT22;11139;51.284;7.226;2022-08-21T09:47:06;19.50;95.60
21950;DHT22;11139;51.284;7.226;2022-08-21T09:49:36;19.50;95.40
21950;DHT22;11139;51.284;7.226;2022-08-21T09:52:03;19.50;95.30
21950;DHT22;11139;51.284;7.226;2022-08-21T09:54:30;19.50;95.60
21950;DHT22;11139;51.284;7.226;2022-08-21T09:57:19;19.50;95.30
21950;DHT22;11139;51.284;7.226;2022-08-21T10:00:07;19.50;95.60
21950;DHT22;11139;51.284;7.226;2022-08-21T10:02:34;19.50;95.50
21950;DHT22;11139;51.284;7.226;2022-08-21T10:07:26;19.50;95.00
21950;DHT22;11139;51.284;7.226;2022-08-21T10:12:54;19.50;95.00
21950;DHT22;11139;51.284;7.226;2022-08-21T10:25:42;19.70;94.00
21950;DHT22;11139;51.284;7.226;2022-08-21T10:31:07;19.70;93.90
21950;DHT22;11139;51.284;7.226;2022-08-21T10:36:13;19.70;93.80
21950;DHT22;11139;51.284;7.226;2022-08-21T10:43:35;19.70;93.60
21950;DHT22;11139;51.284;7.226;2022-08-21T10:48:56;19.70;93.50
21950;DHT22;11139;51.284;7.226;2022-08-21T10:51:35;19.80;93.60
21950;DHT22;11139;51.284;7.226;2022-08-21T10:56:38;19.80;93.20
21950;DHT22;11139;51.284;7.226;2022-08-21T11:04:19;19.90;92.80
21950;DHT22;11139;51.284;7.226;2022-08-21T11:06:47;19.90;92.90
21950;DHT22;11139;51.284;7.226;2022-08-21T11:09:15;19.90;92.90
21950;DHT22;11139;51.284;7.226;2022-08-21T11:11:47;19.90;92.90
21950;DHT22;11139;51.284;7.226;2022-08-21T11:14:23;19.90;92.90
21950;DHT22;11139;51.284;7.226;2022-08-21T11:16:51;19.90;92.90
21950;DHT22;11139;51.284;7.226;2022-08-21T11:27:04;19.90;92.80
21950;DHT22;11139;51.284;7.226;2022-08-21T11:29:36;19.90;92.80
21950;DHT22;11139;51.284;7.226;2022-08-21T11:39:36;20.00;92.40
21950;DHT22;11139;51.284;7.226;2022-08-21T11:44:44;20.00;92.20
21950;DHT22;11139;51.284;7.226;2022-08-21T11:47:15;20.00;92.20
21950;DHT22;11139;51.284;7.226;2022-08-21T11:54:45;20.10;92.10
21950;DHT22;11139;51.284;7.226;2022-08-21T11:57:20;20.10;92.00
21950;DHT22;11139;51.284;7.226;2022-08-21T11:59:51;20.10;92.00
21950;DHT22;11139;51.284;7.226;2022-08-21T12:02:19;20.10;92.00
21950;DHT22;11139;51.284;7.226;2022-08-21T12:04:53;20.10;92.20
21950;DHT22;11139;51.284;7.226;2022-08-21T12:07:34;20.10;92.10
21950;DHT22;11139;51.284;7.226;2022-08-21T12:10:02;20.10;92.20
21950;DHT22;11139;51.284;7.226;2022-08-21T12:12:29;20.20;92.10
21950;DHT22;11139;51.284;7.226;2022-08-21T12:17:40;20.20;92.00
21950;DHT22;11139;51.284;7.226;2022-08-21T12:20:17;20.30;91.70
21950;DHT22;11139;51.284;7.226;2022-08-21T12:22:47;20.30;91.70
21950;DHT22;11139;51.284;7.226;2022-08-21T12:25:16;20.40;91.60
21950;DHT22;11139;51.284;7.226;2022-08-21T12:33:00;20.40;91.10
21950;DHT22;11139;51.284;7.226;2022-08-21T12:35:40;20.40;90.90
21950;DHT22;11139;51.284;7.226;2022-08-21T12:38:32;20.40;91.00
21950;DHT22;11139;51.284;7.226;2022-08-21T12:40:59;20.40;90.80
21950;DHT22;11139;51.284;7.226;2022-08-21T12:43:28;20.50;90.90
21950;DHT22;11139;51.284;7.226;2022-08-21T12:45:54;20.50;90.70
21950;DHT22;11139;51.284;7.226;2022-08-21T12:48:39;20.50;90.50
21950;DHT22;11139;51.284;7.226;2022-08-21T12:51:17;20.50;90.50
21950;DHT22;11139;51.284;7.226;2022-08-21T12:56:09;20.60;90.20
21950;DHT22;11139;51.284;7.226;2022-08-21T12:58:35;20.60;90.20
21950;DHT22;11139;51.284;7.226;2022-08-21T13:01:02;20.60;90.20
21950;DHT22;11139;51.284;7.226;2022-08-21T13:03:29;20.50;90.20
21950;DHT22;11139;51.284;7.226;2022-08-21T13:05:54;20.60;90.30
21950;DHT22;11139;51.284;7.226;2022-08-21T13:08:21;20.60;90.20
21950;DHT22;11139;51.284;7.226;2022-08-21T13:10:48;20.60;90.00
21950;DHT22;11139;51.284;7.226;2022-08-21T13:13:19;20.60;90.00
21950;DHT22;11139;51.284;7.226;2022-08-21T13:15:46;20.60;90.20
21950;DHT22;11139;51.284;7.226;2022-08-21T13:18:21;20.60;90.10
21950;DHT22;11139;51.284;7.226;2022-08-21T13:20:47;20.60;90.30
21950;DHT22;11139;51.284;7.226;2022-08-21T13:25:45;20.70;90.30
21950;DHT22;11139;51.284;7.226;2022-08-21T13:28:11;20.80;90.30
21950;DHT22;11139;51.284;7.226;2022-08-21T13:30:47;20.70;90.30
21950;DHT22;11139;51.284;7.226;2022-08-21T13:33:14;20.80;90.10
21950;DHT22;11139;51.284;7.226;2022-08-21T13:35:48;20.80;89.80
21950;DHT22;11139;51.284;7.226;2022-08-21T13:38:14;20.70;90.10
21950;DHT22;11139;51.284;7.226;2022-08-21T13:40:48;20.70;90.10
21950;DHT22;11139;51.284;7.226;2022-08-21T13:43:15;20.80;89.90
21950;DHT22;11139;51.284;7.226;2022-08-21T13:45:43;20.80;90.00
21950;DHT22;11139;51.284;7.226;2022-08-21T13:48:09;20.80;90.10
21950;DHT22;11139;51.284;7.226;2022-08-21T13:50:35;20.80;90.10
21950;DHT22;11139;51.284;7.226;2022-08-21T13:53:03;20.80;89.80
21950;DHT22;11139;51.284;7.226;2022-08-21T13:55:36;20.80;90.20
21950;DHT22;11139;51.284;7.226;2022-08-21T13:58:03;20.80;90.30
21950;DHT22;11139;51.284;7.226;2022-08-21T14:00:30;20.80;90.40
21950;DHT22;11139;51.284;7.226;2022-08-21T14:03:07;20.80;90.30
21950;DHT22;11139;51.284;7.226;2022-08-21T14:05:35;20.80;90.40
21950;DHT22;11139;51.284;7.226;2022-08-21T14:08:36;20.80;90.40
21950;DHT22;11139;51.284;7.226;2022-08-21T14:10:54;20.80;90.60
21950;DHT22;11139;51.284;7.226;2022-08-21T14:13:39;20.80;90.40
21950;DHT22;11139;51.284;7.226;2022-08-21T14:16:11;20.80;90.50
21950;DHT22;11139;51.284;7.226;2022-08-21T14:18:43;20.90;90.10
21950;DHT22;11139;51.284;7.226;2022-08-21T14:21:09;20.90;90.20
21950;DHT22;11139;51.284;7.226;2022-08-21T14:23:35;20.90;90.40
21950;DHT22;11139;51.284;7.226;2022-08-21T14:26:02;20.90;90.40
21950;DHT22;11139;51.284;7.226;2022-08-21T14:28:30;20.90;90.30
21950;DHT22;11139;51.284;7.226;2022-08-21T14:30:57;20.90;89.10
21950;DHT22;11139;51.284;7.226;2022-08-21T14:33:27;21.00;89.60
21950;DHT22;11139;51.284;7.226;2022-08-21T14:35:53;21.00;89.10
21950;DHT22;11139;51.284;7.226;2022-08-21T14:38:20;21.00;89.20
21950;DHT22;11139;51.284;7.226;2022-08-21T14:40:47;21.10;88.60
21950;DHT22;11139;51.284;7.226;2022-08-21T14:43:13;21.10;88.20
21950;DHT22;11139;51.284;7.226;2022-08-21T14:45:39;21.20;87.90
21950;DHT22;11139;51.284;7.226;2022-08-21T14:48:06;21.10;88.60
21950;DHT22;11139;51.284;7.226;2022-08-21T14:50:32;21.10;88.80
21950;DHT22;11139;51.284;7.226;2022-08-21T14:52:58;21.10;88.90
21950;DHT22;11139;51.284;7.226;2022-08-21T14:55:23;21.20;88.90
21950;DHT22;11139;51.284;7.226;2022-08-21T14:57:49;21.20;87.70
21950;DHT22;11139;51.284;7.226;2022-08-21T15:00:17;21.30;87.20
21950;DHT22;11139;51.284;7.226;2022-08-21T15:02:43;21.30;87.40
21950;DHT22;11139;51.284;7.226;2022-08-21T15:05:08;21.30;86.50
21950;DHT22;11139;51.284;7.226;2022-08-21T15:07:34;21.30;87.00
21950;DHT22;11139;51.284;7.226;2022-08-21T15:09:59;21.30;87.40
21950;DHT22;11139;51.284;7.226;2022-08-21T15:12:25;21.30;87.90
21950;DHT22;11139;51.284;7.226;2022-08-21T15:14:51;21.30;87.60
21950;DHT22;11139;51.284;7.226;2022-08-21T15:17:18;21.30;88.20
21950;DHT22;11139;51.284;7.226;2022-08-21T15:19:43;21.30;87.90
21950;DHT22;11139;51.284;7.226;2022-08-21T15:22:09;21.30;88.30
21950;DHT22;11139;51.284;7.226;2022-08-21T15:24:34;21.30;88.40
21950;DHT22;11139;51.284;7.226;2022-08-21T15:27:00;21.30;88.50
21950;DHT22;11139;51.284;7.226;2022-08-21T15:29:26;21.40;88.20
21950;DHT22;11139;51.284;7.226;2022-08-21T15:31:59;21.50;87.60
21950;DHT22;11139;51.284;7.226;2022-08-21T15:34:25;21.50;87.60
21950;DHT22;11139;51.284;7.226;2022-08-21T15:36:52;21.50;87.00
21950;DHT22;11139;51.284;7.226;2022-08-21T15:39:18;21.50;87.70
21950;DHT22;11139;51.284;7.226;2022-08-21T15:41:44;21.40;87.00
21950;DHT22;11139;51.284;7.226;2022-08-21T15:44:10;21.30;88.00
21950;DHT22;11139;51.284;7.226;2022-08-21T15:46:36;21.30;88.00
21950;DHT22;11139;51.284;7.226;2022-08-21T15:49:02;21.30;88.30
21950;DHT22;11139;51.284;7.226;2022-08-21T15:51:28;21.30;88.20
21950;DHT22;11139;51.284;7.226;2022-08-21T15:53:53;21.30;88.50
21950;DHT22;11139;51.284;7.226;2022-08-21T15:56:24;21.30;87.80
21950;DHT22;11139;51.284;7.226;2022-08-21T15:58:50;21.30;88.20
21950;DHT22;11139;51.284;7.226;2022-08-21T16:01:16;21.20;88.30
21950;DHT22;11139;51.284;7.226;2022-08-21T16:03:42;21.20;88.60
21950;DHT22;11139;51.284;7.226;2022-08-21T16:06:09;21.20;88.50
21950;DHT22;11139;51.284;7.226;2022-08-21T16:08:34;21.20;88.30
21950;DHT22;11139;51.284;7.226;2022-08-21T16:11:00;21.20;88.60
21950;DHT22;11139;51.284;7.226;2022-08-21T16:13:29;21.20;88.30
21950;DHT22;11139;51.284;7.226;2022-08-21T16:15:56;21.20;88.40
21950;DHT22;11139;51.284;7.226;2022-08-21T16:18:22;21.20;88.20
21950;DHT22;11139;51.284;7.226;2022-08-21T16:20:48;21.20;88.00
21950;DHT22;11139;51.284;7.226;2022-08-21T16:23:13;21.20;88.40
21950;DHT22;11139;51.284;7.226;2022-08-21T16:25:39;21.20;88.50
21950;DHT22;11139;51.284;7.226;2022-08-21T16:28:05;21.20;88.00
21950;DHT22;11139;51.284;7.226;2022-08-21T16:30:31;21.20;87.90
21950;DHT22;11139;51.284;7.226;2022-08-21T16:32:58;21.20;87.20
21950;DHT22;11139;51.284;7.226;2022-08-21T16:35:25;21.20;87.40
21950;DHT22;11139;51.284;7.226;2022-08-21T16:37:50;21.20;87.20
21950;DHT22;11139;51.284;7.226;2022-08-21T16:40:16;21.20;87.50
21950;DHT22;11139;51.284;7.226;2022-08-21T16:42:42;21.20;87.50
21950;DHT22;11139;51.284;7.226;2022-08-21T16:45:09;21.20;87.30
21950;DHT22;11139;51.284;7.226;2022-08-21T16:47:36;21.30;86.70
21950;DHT22;11139;51.284;7.226;2022-08-21T16:50:02;21.30;86.00
21950;DHT22;11139;51.284;7.226;2022-08-21T16:52:29;21.30;86.30
21950;DHT22;11139;51.284;7.226;2022-08-21T16:54:54;21.30;86.70
21950;DHT22;11139;51.284;7.226;2022-08-21T16:57:20;21.30;86.90
21950;DHT22;11139;51.284;7.226;2022-08-21T16:59:46;21.30;86.70
21950;DHT22;11139;51.284;7.226;2022-08-21T17:02:17;21.30;86.40